createdAt,value
2022-11-09T00:01:46.529Z,99.59
2022-11-09T00:04:14.775Z,100.00
2022-11-09T00:06:43.051Z,100.00
2022-11-09T00:09:12.698Z,99.91
2022-11-09T00:11:40.945Z,100.00
2022-11-09T00:14:16.911Z,99.75
2022-11-09T00:16:45.252Z,99.58
2022-11-09T00:19:14.046Z,99.43
2022-11-09T00:21:42.320Z,99.88
2022-11-09T00:24:12.676Z,99.78
2022-11-09T00:26:40.920Z,100.00
2022-11-09T00:29:09.360Z,100.00
2022-11-09T00:31:38.033Z,100.00
2022-11-09T00:34:06.311Z,100.00
2022-11-09T00:36:35.595Z,100.00
2022-11-09T00:39:06.602Z,100.00
2022-11-09T00:41:41.480Z,100.00
2022-11-09T00:44:09.756Z,100.00
2022-11-09T00:46:38.296Z,100.00
2022-11-09T00:49:06.695Z,100.00
2022-11-09T00:51:35.324Z,100.00
2022-11-09T00:54:03.765Z,100.00
2022-11-09T00:56:32.042Z,100.00
2022-11-09T00:59:01.742Z,100.00
2022-11-09T01:01:30.159Z,100.00
2022-11-09T01:03:58.992Z,100.00
2022-11-09T01:06:30.524Z,100.00
2022-11-09T01:08:59.721Z,100.00
2022-11-09T01:11:28.081Z,100.00
2022-11-09T01:13:56.799Z,100.00
2022-11-09T01:16:26.507Z,100.00
2022-11-09T01:18:56.187Z,100.00
2022-11-09T01:21:27.739Z,100.00
2022-11-09T01:23:58.428Z,100.00
2022-11-09T01:26:29.812Z,100.00
2022-11-09T01:28:58.015Z,100.00
2022-11-09T01:31:28.292Z,100.00
2022-11-09T01:33:56.655Z,100.00
2022-11-09T01:36:26.428Z,100.00
2022-11-09T01:38:54.825Z,100.00
2022-11-09T01:41:26.582Z,100.00
2022-11-09T01:44:07.783Z,100.00
2022-11-09T01:46:48.969Z,100.00
2022-11-09T01:49:25.684Z,100.00
2022-11-09T01:51:58.611Z,100.00
2022-11-09T01:54:32.064Z,100.00
2022-11-09T01:57:05.328Z,100.00
2022-11-09T01:59:38.232Z,100.00
2022-11-09T02:02:08.373Z,100.00
2022-11-09T02:04:47.014Z,100.00
2022-11-09T02:07:15.740Z,100.00
2022-11-09T02:09:51.148Z,100.00
2022-11-09T02:12:22.298Z,100.00
2022-11-09T02:14:52.110Z,100.00
2022-11-09T02:17:23.016Z,100.00
2022-11-09T02:19:52.144Z,100.00
2022-11-09T02:22:22.736Z,100.00
2022-11-09T02:24:56.033Z,100.00
2022-11-09T02:27:25.504Z,100.00
2022-11-09T02:29:54.637Z,100.00
2022-11-09T02:32:27.603Z,100.00
2022-11-09T02:34:58.279Z,100.00
2022-11-09T02:37:31.482Z,100.00
2022-11-09T02:40:01.624Z,100.00
2022-11-09T02:42:30.450Z,100.00
2022-11-09T02:45:01.137Z,100.00
2022-11-09T02:47:32.512Z,100.00
2022-11-09T02:50:02.614Z,100.00
2022-11-09T02:52:32.417Z,100.00
2022-11-09T02:55:00.708Z,100.00
2022-11-09T02:57:29.033Z,100.00
2022-11-09T02:59:57.548Z,100.00
2022-11-09T03:02:26.035Z,100.00
2022-11-09T03:04:54.319Z,100.00
2022-11-09T03:07:26.735Z,100.00
2022-11-09T03:09:56.459Z,100.00
2022-11-09T03:12:32.950Z,100.00
2022-11-09T03:15:10.919Z,100.00
2022-11-09T03:17:43.660Z,100.00
2022-11-09T03:20:13.267Z,100.00
2022-11-09T03:22:42.583Z,100.00
2022-11-09T03:25:12.602Z,100.00
2022-11-09T03:27:41.190Z,100.00
2022-11-09T03:30:11.465Z,100.00
2022-11-09T03:32:40.185Z,100.00
2022-11-09T03:35:10.527Z,100.00
2022-11-09T03:37:38.838Z,100.00
2022-11-09T03:40:08.858Z,100.00
2022-11-09T03:42:38.589Z,100.00
2022-11-09T03:45:08.210Z,100.00
2022-11-09T03:47:36.450Z,100.00
2022-11-09T03:50:04.818Z,100.00
2022-11-09T03:52:33.052Z,100.00
2022-11-09T03:55:01.287Z,100.00
2022-11-09T03:57:37.996Z,100.00
2022-11-09T04:00:08.895Z,100.00
2022-11-09T04:02:40.026Z,100.00
2022-11-09T04:05:10.525Z,100.00
2022-11-09T04:07:38.864Z,100.00
2022-11-09T04:10:08.931Z,100.00
2022-11-09T04:12:39.010Z,100.00
2022-11-09T04:15:08.429Z,100.00
2022-11-09T04:17:37.651Z,100.00
2022-11-09T04:20:06.943Z,100.00
2022-11-09T04:22:35.662Z,100.00
2022-11-09T04:25:04.563Z,100.00
2022-11-09T04:27:32.809Z,100.00
2022-11-09T04:30:02.415Z,100.00
2022-11-09T04:32:30.702Z,100.00
2022-11-09T04:34:58.881Z,100.00
2022-11-09T04:37:27.143Z,100.00
2022-11-09T04:39:55.358Z,100.00
2022-11-09T04:42:24.000Z,100.00
2022-11-09T04:44:52.226Z,100.00
2022-11-09T04:47:21.793Z,100.00
2022-11-09T04:49:50.056Z,100.00
2022-11-09T04:52:18.284Z,100.00
2022-11-09T04:54:46.595Z,100.00
2022-11-09T04:57:15.004Z,100.00
2022-11-09T04:59:43.197Z,100.00
2022-11-09T05:02:11.407Z,100.00
2022-11-09T05:04:50.995Z,100.00
2022-11-09T05:07:24.345Z,100.00
2022-11-09T05:09:52.564Z,100.00
2022-11-09T05:12:20.823Z,100.00
2022-11-09T05:14:49.230Z,100.00
2022-11-09T05:17:17.431Z,100.00
2022-11-09T05:19:45.619Z,100.00
2022-11-09T05:22:32.814Z,100.00
2022-11-09T05:25:01.095Z,100.00
2022-11-09T05:27:29.255Z,100.00
2022-11-09T05:29:57.421Z,100.00
2022-11-09T05:32:25.635Z,100.00
2022-11-09T05:34:53.878Z,100.00
2022-11-09T05:37:23.555Z,100.00
2022-11-09T05:39:51.763Z,100.00
2022-11-09T05:42:19.968Z,100.00
2022-11-09T05:44:48.189Z,100.00
2022-11-09T05:47:16.364Z,100.00
2022-11-09T05:49:44.556Z,100.00
2022-11-09T05:52:12.806Z,100.00
2022-11-09T05:54:42.421Z,100.00
2022-11-09T05:57:10.637Z,100.00
2022-11-09T05:59:38.860Z,100.00
2022-11-09T06:02:07.174Z,100.00
2022-11-09T06:04:35.483Z,100.00
2022-11-09T06:07:03.759Z,100.00
2022-11-09T06:09:32.013Z,100.00
2022-11-09T06:12:01.683Z,100.00
2022-11-09T06:14:29.902Z,100.00
2022-11-09T06:16:58.115Z,100.00
2022-11-09T06:19:26.315Z,100.00
2022-11-09T06:21:54.551Z,100.00
2022-11-09T06:24:22.756Z,100.00
2022-11-09T06:26:50.969Z,100.00
2022-11-09T06:29:20.778Z,100.00
2022-11-09T06:31:49.082Z,100.00
2022-11-09T06:34:17.338Z,100.00
2022-11-09T06:36:45.543Z,100.00
2022-11-09T06:39:14.035Z,100.00
2022-11-09T06:41:46.231Z,100.00
2022-11-09T06:44:16.190Z,100.00
2022-11-09T06:46:45.756Z,100.00
2022-11-09T06:49:13.950Z,100.00
2022-11-09T06:51:42.185Z,100.00
2022-11-09T06:54:10.394Z,100.00
2022-11-09T06:56:38.599Z,100.00
2022-11-09T06:59:06.798Z,100.00
2022-11-09T07:01:35.185Z,100.00
2022-11-09T07:04:09.287Z,100.00
2022-11-09T07:07:08.307Z,100.00
2022-11-09T07:09:36.605Z,100.00
2022-11-09T07:12:05.039Z,100.00
2022-11-09T07:14:33.219Z,100.00
2022-11-09T07:17:01.514Z,100.00
2022-11-09T07:19:31.557Z,100.00
2022-11-09T07:21:59.767Z,100.00
2022-11-09T07:24:28.051Z,100.00
2022-11-09T07:26:56.266Z,100.00
2022-11-09T07:29:24.519Z,100.00
2022-11-09T07:31:53.206Z,100.00
2022-11-09T07:34:21.374Z,100.00
2022-11-09T07:36:50.972Z,100.00
2022-11-09T07:39:19.169Z,100.00
2022-11-09T07:41:48.911Z,100.00
2022-11-09T07:44:18.353Z,100.00
2022-11-09T07:46:48.747Z,100.00
2022-11-09T07:49:17.886Z,100.00
2022-11-09T07:51:46.126Z,100.00
2022-11-09T07:54:15.650Z,100.00
2022-11-09T07:56:44.006Z,100.00
2022-11-09T07:59:12.230Z,100.00
2022-11-09T08:01:40.495Z,100.00
2022-11-09T08:04:08.722Z,100.00
2022-11-09T08:06:37.011Z,100.00
2022-11-09T08:09:05.664Z,100.00
2022-11-09T08:11:35.384Z,100.00
2022-11-09T08:14:03.631Z,100.00
2022-11-09T08:16:37.403Z,100.00
2022-11-09T08:19:08.883Z,100.00
2022-11-09T08:21:37.250Z,100.00
2022-11-09T08:24:06.810Z,100.00
2022-11-09T08:26:36.471Z,100.00
2022-11-09T08:29:04.723Z,100.00
2022-11-09T08:31:33.026Z,100.00
2022-11-09T08:34:01.246Z,100.00
2022-11-09T08:36:29.883Z,100.00
2022-11-09T08:38:59.250Z,100.00
2022-11-09T08:41:27.552Z,100.00
2022-11-09T08:43:57.113Z,100.00
2022-11-09T08:46:25.344Z,100.00
2022-11-09T08:48:53.617Z,100.00
2022-11-09T08:51:21.891Z,100.00
2022-11-09T08:53:51.607Z,100.00
2022-11-09T08:56:19.924Z,100.00
2022-11-09T08:58:48.366Z,100.00
2022-11-09T09:01:24.248Z,100.00
2022-11-09T09:03:52.512Z,100.00
2022-11-09T09:06:20.766Z,100.00
2022-11-09T09:08:49.442Z,100.00
2022-11-09T09:11:17.874Z,100.00
2022-11-09T09:13:46.133Z,100.00
2022-11-09T09:16:17.987Z,100.00
2022-11-09T09:18:48.676Z,100.00
2022-11-09T09:21:17.451Z,100.00
2022-11-09T09:23:49.185Z,100.00
2022-11-09T09:26:17.995Z,100.00
2022-11-09T09:28:46.220Z,100.00
2022-11-09T09:31:18.415Z,100.00
2022-11-09T09:33:48.499Z,100.00
2022-11-09T09:36:19.977Z,100.00
2022-11-09T09:38:49.476Z,100.00
2022-11-09T09:41:24.143Z,100.00
2022-11-09T09:43:57.315Z,100.00
2022-11-09T09:46:32.278Z,100.00
2022-11-09T09:49:07.893Z,100.00
2022-11-09T09:51:40.326Z,100.00
2022-11-09T09:54:14.173Z,100.00
2022-11-09T09:56:45.650Z,100.00
2022-11-09T09:59:22.020Z,100.00
2022-11-09T10:01:50.691Z,100.00
2022-11-09T10:04:22.948Z,100.00
2022-11-09T10:07:04.773Z,100.00
2022-11-09T10:09:56.379Z,100.00
2022-11-09T10:12:39.023Z,100.00
2022-11-09T10:15:25.161Z,100.00
2022-11-09T10:18:26.280Z,100.00
2022-11-09T10:21:13.202Z,100.00
2022-11-09T10:23:59.648Z,100.00
2022-11-09T10:26:41.023Z,100.00
2022-11-09T10:29:24.815Z,100.00
2022-11-09T10:31:56.171Z,100.00
2022-11-09T10:34:29.876Z,100.00
2022-11-09T10:37:07.289Z,100.00
2022-11-09T10:39:43.611Z,100.00
2022-11-09T10:42:30.341Z,100.00
2022-11-09T10:45:28.123Z,100.00
2022-11-09T10:48:15.664Z,100.00
2022-11-09T10:51:03.010Z,100.00
2022-11-09T10:54:17.228Z,100.00
2022-11-09T10:57:15.148Z,100.00
2022-11-09T11:00:02.499Z,100.00
2022-11-09T11:02:52.011Z,100.00
2022-11-09T11:05:39.984Z,100.00
2022-11-09T11:08:37.809Z,100.00
2022-11-09T11:11:36.948Z,100.00
2022-11-09T11:14:31.739Z,100.00
2022-11-09T11:17:28.076Z,100.00
2022-11-09T11:20:30.993Z,100.00
2022-11-09T11:23:21.215Z,100.00
2022-11-09T11:26:36.698Z,100.00
2022-11-09T11:29:41.175Z,100.00
2022-11-09T11:32:28.329Z,100.00
2022-11-09T11:35:17.853Z,100.00
2022-11-09T11:38:19.920Z,100.00
2022-11-09T11:41:34.420Z,100.00
2022-11-09T11:44:39.460Z,100.00
2022-11-09T11:47:33.861Z,99.50
2022-11-09T11:50:34.061Z,98.78
2022-11-09T11:53:39.424Z,100.00
2022-11-09T11:56:35.920Z,100.00
2022-11-09T11:59:52.126Z,100.00
2022-11-09T12:03:36.083Z,98.16
2022-11-09T12:06:39.466Z,98.73
2022-11-09T12:09:45.174Z,97.95
2022-11-09T12:12:44.749Z,96.59
2022-11-09T12:15:49.225Z,97.10
2022-11-09T12:18:49.983Z,94.59
2022-11-09T12:21:45.370Z,93.78
2022-11-09T12:24:39.115Z,93.34
2022-11-09T12:27:55.232Z,93.35
2022-11-09T12:30:56.135Z,94.57
2022-11-09T12:33:50.138Z,94.14
2022-11-09T12:36:44.103Z,93.07
2022-11-09T12:39:38.136Z,93.47
2022-11-09T12:42:32.952Z,93.09
2022-11-09T12:45:28.276Z,92.30
2022-11-09T12:48:26.664Z,93.20
2022-11-09T12:51:13.630Z,92.84
2022-11-09T12:54:02.436Z,94.73
2022-11-09T12:56:55.247Z,95.81
2022-11-09T12:59:50.074Z,94.73
2022-11-09T13:02:40.395Z,95.49
2022-11-09T13:05:32.938Z,94.86
2022-11-09T13:08:26.188Z,96.00
2022-11-09T13:11:22.891Z,95.87
2022-11-09T13:14:36.388Z,96.64
2022-11-09T13:17:59.587Z,95.34
2022-11-09T13:20:57.587Z,96.56
2022-11-09T13:24:03.357Z,96.61
2022-11-09T13:26:59.554Z,96.44
2022-11-09T13:33:24.896Z,96.58
2022-11-09T13:36:20.430Z,96.92
2022-11-09T13:39:33.379Z,97.35
2022-11-09T13:42:29.621Z,96.65
2022-11-09T13:45:34.479Z,97.57
2022-11-09T13:48:53.134Z,98.15
2022-11-09T13:51:47.100Z,97.59
2022-11-09T13:54:35.990Z,97.51
2022-11-09T13:57:25.540Z,98.16
2022-11-09T14:00:23.166Z,98.72
2022-11-09T14:03:21.828Z,98.19
2022-11-09T14:06:14.376Z,98.62
2022-11-09T14:09:03.889Z,99.46
2022-11-09T14:12:09.881Z,99.48
2022-11-09T14:15:13.807Z,99.87
2022-11-09T14:18:16.095Z,100.00
2022-11-09T14:21:28.972Z,99.98
2022-11-09T14:24:20.725Z,99.63
2022-11-09T14:27:17.774Z,99.72
2022-11-09T14:30:15.583Z,100.00
2022-11-09T14:33:02.487Z,100.00
2022-11-09T14:35:49.407Z,100.00
2022-11-09T14:38:45.655Z,100.00
2022-11-09T14:41:34.155Z,100.00
2022-11-09T14:44:29.229Z,100.00
2022-11-09T14:47:18.640Z,100.00
2022-11-09T14:50:06.825Z,100.00
2022-11-09T14:52:56.584Z,100.00
2022-11-09T14:55:44.331Z,100.00
2022-11-09T14:58:38.022Z,100.00
2022-11-09T15:01:28.303Z,100.00
2022-11-09T15:04:23.775Z,100.00
2022-11-09T15:07:20.319Z,100.00
2022-11-09T15:10:19.381Z,100.00
2022-11-09T15:13:06.340Z,100.00
2022-11-09T15:15:56.205Z,100.00
2022-11-09T15:18:47.233Z,100.00
2022-11-09T15:21:38.891Z,100.00
2022-11-09T15:24:28.119Z,100.00
2022-11-09T15:27:32.791Z,100.00
2022-11-09T15:30:32.956Z,100.00
2022-11-09T15:33:28.735Z,100.00
2022-11-09T15:36:31.898Z,100.00
2022-11-09T15:39:22.605Z,100.00
2022-11-09T15:42:14.734Z,100.00
2022-11-09T15:45:01.742Z,100.00
2022-11-09T15:47:53.686Z,100.00
2022-11-09T15:50:42.414Z,100.00
2022-11-09T15:53:29.314Z,100.00
2022-11-09T15:56:19.337Z,100.00
2022-11-09T15:59:07.073Z,100.00
2022-11-09T16:01:54.571Z,100.00
2022-11-09T16:04:42.177Z,100.00
2022-11-09T16:07:30.192Z,100.00
2022-11-09T16:10:17.835Z,100.00
2022-11-09T16:13:05.274Z,100.00
2022-11-09T16:15:52.308Z,100.00
2022-11-09T16:18:38.950Z,100.00
2022-11-09T16:21:25.939Z,100.00
2022-11-09T16:24:14.251Z,100.00
2022-11-09T16:27:04.479Z,100.00
2022-11-09T16:29:56.658Z,100.00
2022-11-09T16:32:43.585Z,100.00
2022-11-09T16:35:30.514Z,100.00
2022-11-09T16:38:18.140Z,100.00
2022-11-09T16:41:07.291Z,100.00
2022-11-09T16:43:54.728Z,100.00
2022-11-09T16:46:44.211Z,100.00
2022-11-09T16:49:30.892Z,100.00
2022-11-09T16:52:17.604Z,100.00
2022-11-09T16:55:04.886Z,100.00
2022-11-09T16:57:53.030Z,100.00
2022-11-09T17:01:09.222Z,100.00
2022-11-09T17:04:10.177Z,100.00
2022-11-09T17:07:05.700Z,100.00
2022-11-09T17:09:52.797Z,100.00
2022-11-09T17:12:39.556Z,100.00
2022-11-09T17:15:27.681Z,100.00
2022-11-09T17:18:15.222Z,100.00
2022-11-09T17:21:01.897Z,100.00
2022-11-09T17:23:48.780Z,100.00
2022-11-09T17:26:37.540Z,100.00
2022-11-09T17:29:24.706Z,100.00
2022-11-09T17:32:12.998Z,100.00
2022-11-09T17:34:59.647Z,100.00
2022-11-09T17:37:46.269Z,100.00
2022-11-09T17:40:33.010Z,100.00
2022-11-09T17:43:19.647Z,100.00
2022-11-09T17:46:07.918Z,100.00
2022-11-09T17:48:55.890Z,100.00
2022-11-09T17:51:42.661Z,100.00
2022-11-09T17:54:33.962Z,100.00
2022-11-09T17:57:23.446Z,100.00
2022-11-09T18:00:11.923Z,100.00
2022-11-09T18:02:58.829Z,100.00
2022-11-09T18:05:47.134Z,100.00
2022-11-09T18:08:33.561Z,100.00
2022-11-09T18:11:20.643Z,100.00
2022-11-09T18:14:07.536Z,100.00
2022-11-09T18:16:54.121Z,100.00
2022-11-09T18:19:40.889Z,100.00
2022-11-09T18:22:28.938Z,100.00
2022-11-09T18:25:15.795Z,100.00
2022-11-09T18:28:02.718Z,100.00
2022-11-09T18:30:49.432Z,100.00
2022-11-09T18:33:36.590Z,100.00
2022-11-09T18:36:23.808Z,100.00
2022-11-09T18:39:11.960Z,100.00
2022-11-09T18:42:00.345Z,100.00
2022-11-09T18:44:46.846Z,100.00
2022-11-09T18:47:33.378Z,100.00
2022-11-09T18:50:21.796Z,100.00
2022-11-09T18:53:08.397Z,100.00
2022-11-09T18:56:06.287Z,100.00
2022-11-09T18:58:55.917Z,100.00
2022-11-09T19:01:43.299Z,100.00
2022-11-09T19:04:31.989Z,100.00
2022-11-09T19:07:19.217Z,100.00
2022-11-09T19:10:06.670Z,100.00
2022-11-09T19:12:54.928Z,100.00
2022-11-09T19:15:45.587Z,100.00
2022-11-09T19:18:32.530Z,100.00
2022-11-09T19:21:38.250Z,100.00
2022-11-09T19:24:26.922Z,100.00
2022-11-09T19:27:13.964Z,100.00
2022-11-09T19:30:07.936Z,100.00
2022-11-09T19:32:56.285Z,100.00
2022-11-09T19:35:42.866Z,100.00
2022-11-09T19:38:29.520Z,100.00
2022-11-09T19:43:58.568Z,100.00
2022-11-09T19:46:46.051Z,100.00
2022-11-09T19:49:32.980Z,100.00
2022-11-09T19:52:19.642Z,100.00
2022-11-09T19:55:07.670Z,100.00
2022-11-09T19:57:54.546Z,100.00
2022-11-09T20:00:42.675Z,100.00
2022-11-09T20:03:29.784Z,100.00
2022-11-09T20:06:16.694Z,100.00
2022-11-09T20:09:03.320Z,100.00
2022-11-09T20:12:07.458Z,100.00
2022-11-09T20:14:54.220Z,100.00
2022-11-09T20:17:42.316Z,100.00
2022-11-09T20:20:29.077Z,100.00
2022-11-09T20:23:21.404Z,100.00
2022-11-09T20:26:11.980Z,100.00
2022-11-09T20:28:58.726Z,100.00
2022-11-09T20:31:45.643Z,100.00
2022-11-09T20:34:33.831Z,100.00
2022-11-09T20:37:20.504Z,100.00
2022-11-09T20:40:09.224Z,100.00
2022-11-09T20:42:55.939Z,100.00
2022-11-09T20:45:42.370Z,100.00
2022-11-09T20:48:52.802Z,100.00
2022-11-09T20:51:37.463Z,100.00
2022-11-09T20:54:24.395Z,100.00
2022-11-09T20:57:10.952Z,100.00
2022-11-09T20:59:57.750Z,100.00
2022-11-09T21:02:44.740Z,100.00
2022-11-09T21:05:37.040Z,100.00
2022-11-09T21:08:25.888Z,100.00
2022-11-09T21:11:13.243Z,100.00
2022-11-09T21:14:00.323Z,100.00
2022-11-09T21:16:47.081Z,100.00
2022-11-09T21:19:33.835Z,100.00
2022-11-09T21:22:20.498Z,100.00
2022-11-09T21:25:26.715Z,100.00
2022-11-09T21:28:34.598Z,100.00
2022-11-09T21:31:21.582Z,100.00
2022-11-09T21:34:08.322Z,100.00
2022-11-09T21:36:55.017Z,100.00
2022-11-09T21:39:42.487Z,100.00
2022-11-09T21:42:30.428Z,100.00
2022-11-09T21:45:17.211Z,100.00
2022-11-09T21:48:04.092Z,100.00
2022-11-09T21:50:52.745Z,100.00
2022-11-09T21:53:39.555Z,100.00
2022-11-09T21:56:27.000Z,100.00
2022-11-09T21:59:15.193Z,100.00
2022-11-09T22:02:01.962Z,100.00
2022-11-09T22:04:48.440Z,100.00
2022-11-09T22:07:35.074Z,100.00
2022-11-09T22:10:23.485Z,100.00
2022-11-09T22:13:28.754Z,100.00
2022-11-09T22:16:17.380Z,100.00
2022-11-09T22:19:22.171Z,100.00
2022-11-09T22:22:11.844Z,100.00
2022-11-09T22:24:58.815Z,100.00
2022-11-09T22:27:45.740Z,100.00
2022-11-09T22:30:32.413Z,100.00
2022-11-09T22:33:25.918Z,100.00
2022-11-09T22:36:16.377Z,100.00
2022-11-09T22:39:03.554Z,100.00
2022-11-09T22:41:50.383Z,100.00
2022-11-09T22:44:37.543Z,100.00
2022-11-09T22:47:24.235Z,100.00
2022-11-09T22:50:12.438Z,100.00
2022-11-09T22:53:03.520Z,100.00
2022-11-09T22:55:53.954Z,100.00
2022-11-09T22:58:42.566Z,100.00
2022-11-09T23:01:31.543Z,100.00
2022-11-09T23:04:19.267Z,100.00
2022-11-09T23:07:07.514Z,100.00
2022-11-09T23:09:54.586Z,100.00
2022-11-09T23:12:41.318Z,100.00
2022-11-09T23:15:28.954Z,100.00
2022-11-09T23:18:33.097Z,100.00
2022-11-09T23:21:21.043Z,100.00
2022-11-09T23:24:30.615Z,100.00
2022-11-09T23:27:17.175Z,100.00
2022-11-09T23:30:04.291Z,100.00
2022-11-09T23:32:51.448Z,100.00
2022-11-09T23:35:38.393Z,100.00
2022-11-09T23:38:26.379Z,100.00
2022-11-09T23:41:15.668Z,100.00
2022-11-09T23:44:02.286Z,100.00
2022-11-09T23:46:48.931Z,100.00
2022-11-09T23:49:35.589Z,100.00
2022-11-09T23:52:22.197Z,100.00
2022-11-09T23:55:09.687Z,100.00
2022-11-09T23:57:58.104Z,100.00
